Dobrodošli na spletni strani vremenske postaje Senovo. Vse informacije so informativnega značaja, saj vremenska postaja ni del državne mreže meteoroloških postaj. AKTUALNIH OBVESTIL NI.


Sneg/Led Od: 22-02-2018 00:00 Do: 23-02-2018 23:59 Opozorilo za: Sneg/Led Stopnja: Rumena info button
Veter Od: 22-02-2018 00:00 Do: 23:59 Opozorilo za: Veter Stopnja: Rumena info button

Pogled proti Armezu več informacij Pogled proti Armezu


Lisca več informacij Lisca


Radar strel več informacij blitzortung!


opozorilo za sneg/led več informacij rain snow radar


Obiščite še:

Template documentation
and downloads

And another site



Weather Underground, zgodovina - Tekstovno

Dnevni povzetek za Januar 26, 2018 Enote:  Angleško    Metrično   Obe
« Predhodni Dan
Naslednji Dan »
Dnevni Tedenski Mesečni Letni Po meri
  Višja: Nižja: Povprečje:
Temperatura: TemperatureC °F 1.3 °F 7 °F
Točka rosišča: DewpointC °F -2.0 °F 1.8 °F
Vlažnost: Humidity % 46 % 72 %
Hitrost vetra: WindSpeedKMH mph 0.0 mph 3.1 mph
Sunki vetra: WindSpeedGustKMH mph - -
Veter:- - WSW
Zračni tlak: PressurehPa in 1016.1 in -
Padavine: 0.0 in    
Historical Graphs
 
 
Tabelarni podarki za Januar 26, 2018
Čas Temperatura Točka rosišča Zračni tlak Veter Hitrost vetra Sunki vetra Vlažnost Intenziteta padavin (urna)
TemperatureC °F DewpointC °F PressurehPa in Calm     Humidity % HourlyPrecipMM in
00:02 3.2 °F 0.1 °F 1018.8 in WSW 0.5 mph 5.5 mph 80 % 0.0 in
00:07 3.1 °F 0.0 °F 1018.8 in WSW 1.9 mph 6.9 mph 80 % 0.0 in
00:12 3.2 °F 0.3 °F 1018.8 in WSW 1.9 mph 6.9 mph 81 % 0.0 in
00:17 3.1 °F 0.2 °F 1018.8 in WNW 1.3 mph 4.0 mph 81 % 0.0 in
00:22 3.2 °F 0.3 °F 1018.8 in NW 1.1 mph 7.6 mph 81 % 0.0 in
00:27 3.2 °F 0.4 °F 1018.8 in NW 1.1 mph 7.6 mph 82 % 0.0 in
00:32 3.3 °F 0.5 °F 1018.8 in NW 0.8 mph 4.3 mph 82 % 0.0 in
00:37 3.3 °F 0.5 °F 1018.8 in West 1.0 mph 5.0 mph 82 % 0.0 in
00:42 3.3 °F 0.7 °F 1018.8 in SW 1.1 mph 5.0 mph 83 % 0.0 in
00:47 3.5 °F 0.9 °F 1018.8 in WNW 0.8 mph 3.2 mph 83 % 0.0 in
00:52 3.7 °F 1.2 °F 1018.8 in NNW 0.8 mph 5.5 mph 84 % 0.0 in
00:57 4.3 °F 1.8 °F 1018.8 in NW 2.3 mph 11.6 mph 84 % 0.0 in
01:02 4.7 °F 2.4 °F 1018.8 in SW 3.9 mph 11.6 mph 85 % 0.0 in
01:07 5.4 °F 3.1 °F 1018.8 in SW 5.3 mph 12.6 mph 85 % 0.0 in
01:12 5.9 °F 3.6 °F 1018.2 in SW 5.3 mph 12.6 mph 85 % 0.0 in
01:17 6.3 °F 4.1 °F 1018.2 in SSW 3.5 mph 9.0 mph 86 % 0.0 in
01:22 6.8 °F 4.6 °F 1018.2 in WSW 3.7 mph 9.0 mph 86 % 0.0 in
01:27 7.1 °F 4.9 °F 1018.2 in SW 4.5 mph 9.0 mph 86 % 0.0 in
01:32 7.3 °F 5.1 °F 1018.2 in SW 4.2 mph 9.0 mph 86 % 0.0 in
01:37 7.4 °F 5.4 °F 1018.2 in SW 3.1 mph 7.6 mph 87 % 0.0 in
01:42 7.5 °F 5.5 °F 1018.2 in SSW 1.4 mph 6.1 mph 87 % 0.0 in
01:47 7.6 °F 5.6 °F 1018.2 in South 2.9 mph 13.0 mph 87 % 0.0 in
01:52 7.7 °F 5.7 °F 1018.2 in South 4.7 mph 13.0 mph 87 % 0.0 in
01:57 7.8 °F 5.8 °F 1018.2 in South 2.9 mph 9.0 mph 87 % 0.0 in
02:02 7.8 °F 5.8 °F 1018.2 in SSE 1.0 mph 4.0 mph 87 % 0.0 in
02:07 7.9 °F 5.9 °F 1018.2 in South 2.1 mph 6.9 mph 87 % 0.0 in
02:12 7.9 °F 5.9 °F 1016.8 in SSW 2.6 mph 6.9 mph 87 % 0.0 in
02:17 7.8 °F 5.8 °F 1016.8 in SSW 1.6 mph 4.3 mph 87 % 0.0 in
02:22 7.9 °F 5.9 °F 1016.8 in South 2.7 mph 5.5 mph 87 % 0.0 in
02:27 7.8 °F 5.6 °F 1016.8 in South 2.9 mph 6.9 mph 86 % 0.0 in
02:32 7.8 °F 5.6 °F 1016.8 in South 3.1 mph 6.9 mph 86 % 0.0 in
02:37 7.7 °F 5.5 °F 1016.8 in South 3.5 mph 6.4 mph 86 % 0.0 in
02:42 7.5 °F 5.3 °F 1016.8 in South 2.6 mph 6.4 mph 86 % 0.0 in
02:47 7.4 °F 5.1 °F 1016.8 in SSE 1.4 mph 7.6 mph 85 % 0.0 in
02:52 7.4 °F 5.1 °F 1016.8 in South 1.1 mph 7.6 mph 85 % 0.0 in
02:57 7.4 °F 5.1 °F 1016.8 in SSE 0.6 mph 4.7 mph 85 % 0.0 in
03:02 7.3 °F 4.9 °F 1016.8 in SW 0.5 mph 4.0 mph 85 % 0.0 in
03:07 7.2 °F 4.7 °F 1016.8 in South 1.3 mph 5.0 mph 84 % 0.0 in
03:13 7.0 °F 4.5 °F 1016.8 in South 1.9 mph 5.0 mph 84 % 0.0 in
03:18 6.6 °F 4.1 °F 1016.8 in SW 1.1 mph 4.7 mph 84 % 0.0 in
03:23 6.3 °F 3.8 °F 1016.8 in SW 0.6 mph 4.0 mph 84 % 0.0 in
03:28 6.1 °F 3.4 °F 1016.8 in SW 1.0 mph 2.6 mph 83 % 0.0 in
03:33 5.7 °F 3.1 °F 1016.8 in WSW 1.0 mph 4.3 mph 83 % 0.0 in
03:38 5.4 °F 2.7 °F 1016.8 in WNW 1.1 mph 4.3 mph 83 % 0.0 in
03:43 5.3 °F 2.7 °F 1016.8 in NW 0.5 mph 4.3 mph 83 % 0.0 in
03:48 5.1 °F 2.4 °F 1016.8 in NW 1.1 mph 4.7 mph 83 % 0.0 in
03:53 5.0 °F 2.3 °F 1016.8 in NW 1.4 mph 4.7 mph 83 % 0.0 in
03:58 4.9 °F 2.3 °F 1016.8 in WNW 0.5 mph 3.2 mph 83 % 0.0 in
04:03 4.7 °F 2.1 °F 1016.8 in West 0.2 mph 2.6 mph 83 % 0.0 in
04:08 4.6 °F 1.9 °F 1016.8 in WNW 0.3 mph 3.5 mph 83 % 0.0 in
04:13 4.6 °F 1.9 °F 1016.8 in WNW 0.5 mph 3.5 mph 83 % 0.0 in
04:18 4.5 °F 1.9 °F 1016.8 in North 0.2 mph   83 % 0.0 in
04:23 4.5 °F 1.9 °F 1016.8 in Calm   2.6 mph 83 % 0.0 in
04:28 4.5 °F 2.1 °F 1016.1 in NNW 0.2 mph 2.6 mph 84 % 0.0 in
04:33 4.5 °F 2.1 °F 1016.1 in WNW 0.3 mph 3.5 mph 84 % 0.0 in
04:38 4.4 °F 1.9 °F 1016.1 in WNW 0.2 mph 3.5 mph 84 % 0.0 in
04:43 4.4 °F 1.9 °F 1016.8 in Calm     84 % 0.0 in
04:48 4.5 °F 2.1 °F 1016.8 in Calm     84 % 0.0 in
04:53 4.5 °F 2.2 °F 1016.8 in Calm     85 % 0.0 in
04:58 4.5 °F 2.2 °F 1016.8 in WSW 0.6 mph 4.7 mph 85 % 0.0 in
05:03 4.4 °F 2.1 °F 1016.8 in WSW 1.9 mph 6.1 mph 85 % 0.0 in
05:08 4.4 °F 2.1 °F 1016.8 in SW 3.7 mph 6.4 mph 85 % 0.0 in
05:13 4.4 °F 2.1 °F 1016.8 in SW 3.2 mph 6.4 mph 85 % 0.0 in
05:18 4.3 °F 2.0 °F 1016.8 in West 1.0 mph 4.3 mph 85 % 0.0 in
05:23 4.3 °F 2.2 °F 1016.8 in NW 0.3 mph 2.6 mph 86 % 0.0 in
05:28 4.3 °F 2.2 °F 1016.1 in NW 0.3 mph 2.6 mph 86 % 0.0 in
05:33 4.3 °F 2.2 °F 1016.1 in Calm     86 % 0.0 in
05:38 4.2 °F 2.1 °F 1016.1 in Calm     86 % 0.0 in
05:43 4.1 °F 1.9 °F 1016.8 in Calm     86 % 0.0 in
05:48 4.1 °F 1.9 °F 1016.8 in NW 0.2 mph 3.2 mph 86 % 0.0 in
05:53 4.1 °F 1.9 °F 1016.8 in WNW 0.5 mph 3.5 mph 86 % 0.0 in
05:58 4.0 °F 1.9 °F 1016.8 in West 0.2 mph 3.5 mph 86 % 0.0 in
06:03 4.0 °F 2.1 °F 1016.8 in Calm     87 % 0.0 in
06:08 4.0 °F 2.1 °F 1016.8 in Calm     87 % 0.0 in
06:13 3.9 °F 1.9 °F 1016.8 in Calm     87 % 0.0 in
06:18 3.8 °F 1.8 °F 1016.8 in Calm     87 % 0.0 in
06:23 3.8 °F 1.8 °F 1016.8 in Calm     87 % 0.0 in
06:28 3.7 °F 1.7 °F 1016.8 in Calm     87 % 0.0 in
06:33 3.7 °F 1.7 °F 1016.8 in Calm     87 % 0.0 in
06:38 3.7 °F 1.9 °F 1016.8 in Calm     88 % 0.0 in
06:43 3.6 °F 1.8 °F 1016.8 in Calm     88 % 0.0 in
06:49 3.6 °F 1.8 °F 1016.8 in Calm     88 % 0.0 in
06:53 3.6 °F 1.8 °F 1016.8 in Calm     88 % 0.0 in
06:59 3.6 °F 1.8 °F 1018.2 in NW 0.8 mph 4.3 mph 88 % 0.0 in
07:03 3.7 °F 1.9 °F 1018.2 in NW 0.8 mph 4.3 mph 88 % 0.0 in
07:09 3.7 °F 1.9 °F 1018.2 in Calm     88 % 0.0 in
07:13 3.7 °F 1.9 °F 1018.2 in NW 0.6 mph 4.0 mph 88 % 0.0 in
07:19 3.7 °F 1.9 °F 1018.2 in NW 0.6 mph 4.0 mph 88 % 0.0 in
07:23 3.7 °F 1.9 °F 1018.2 in Calm     88 % 0.0 in
07:29 3.7 °F 2.1 °F 1018.2 in Calm     89 % 0.0 in
07:34 3.7 °F 2.1 °F 1018.2 in Calm     89 % 0.0 in
07:39 3.7 °F 2.1 °F 1018.2 in Calm     89 % 0.0 in
07:44 3.8 °F 2.2 °F 1018.2 in Calm     89 % 0.0 in
07:49 3.8 °F 2.2 °F 1018.2 in Calm     89 % 0.0 in
07:54 3.8 °F 2.2 °F 1018.2 in Calm     89 % 0.0 in
07:59 3.9 °F 2.4 °F 1018.2 in Calm     90 % 0.0 in
08:04 3.9 °F 2.4 °F 1018.2 in Calm     90 % 0.0 in
08:09 4.0 °F 2.5 °F 1018.2 in Calm     90 % 0.0 in
08:14 4.0 °F 2.5 °F 1018.8 in Calm     90 % 0.0 in
08:19 4.1 °F 2.6 °F 1018.8 in Calm     90 % 0.0 in
08:24 4.3 °F 2.8 °F 1018.8 in SSE 0.2 mph 3.5 mph 90 % 0.0 in
08:29 4.4 °F 2.9 °F 1018.8 in SSE 0.2 mph 3.5 mph 90 % 0.0 in
08:34 4.6 °F 3.3 °F 1018.8 in Calm     91 % 0.0 in
08:39 4.7 °F 3.3 °F 1018.8 in Calm     91 % 0.0 in
08:44 4.8 °F 3.4 °F 1018.8 in Calm     91 % 0.0 in
08:49 5.0 °F 3.7 °F 1018.8 in Calm     91 % 0.0 in
08:54 5.1 °F 3.8 °F 1018.8 in Calm     91 % 0.0 in
08:59 5.3 °F 3.9 °F 1018.8 in Calm     91 % 0.0 in
09:04 5.5 °F 4.3 °F 1018.8 in Calm     92 % 0.0 in
09:09 5.7 °F 4.5 °F 1018.8 in Calm     92 % 0.0 in
09:14 6.0 °F 4.8 °F 1018.8 in Calm     92 % 0.0 in
09:19 6.3 °F 5.1 °F 1018.8 in Calm     92 % 0.0 in
09:24 6.5 °F 5.3 °F 1018.8 in Calm   2.6 mph 92 % 0.0 in
09:29 7.1 °F 5.9 °F 1018.8 in ESE 0.5 mph 5.8 mph 92 % 0.0 in
09:34 7.7 °F 6.7 °F 1018.8 in SSW 2.7 mph 8.7 mph 93 % 0.0 in
09:39 8.2 °F 7.0 °F 1018.8 in SW 4.5 mph 8.7 mph 92 % 0.0 in
09:44 8.8 °F 7.7 °F 1018.8 in SW 4.0 mph 7.9 mph 93 % 0.0 in
09:49 9.3 °F 8.2 °F 1018.8 in SW 4.7 mph 9.3 mph 93 % 0.0 in
09:54 9.6 °F 8.5 °F 1018.8 in WSW 5.1 mph 13.7 mph 93 % 0.0 in
09:59 10.1 °F 8.8 °F 1018.8 in West 7.1 mph 13.7 mph 92 % 0.0 in
10:04 10.4 °F 9.0 °F 1018.8 in West 6.8 mph 13.7 mph 91 % 0.0 in
10:09 10.6 °F 9.0 °F 1018.8 in WNW 5.6 mph 16.6 mph 90 % 0.0 in
10:14 10.8 °F 9.1 °F 1019.9 in West 5.6 mph 16.6 mph 89 % 0.0 in
10:19 11.0 °F 9.1 °F 1019.9 in WSW 5.0 mph 14.0 mph 88 % 0.0 in
10:24 11.2 °F 8.9 °F 1019.9 in West 6.0 mph 14.0 mph 86 % 0.0 in
10:29 11.4 °F 8.9 °F 1018.8 in West 7.6 mph 18.3 mph 85 % 0.0 in
10:34 11.5 °F 8.7 °F 1018.8 in WNW 7.6 mph 18.3 mph 83 % 0.0 in
10:39 11.7 °F 8.6 °F 1018.8 in NW 7.6 mph 16.6 mph 81 % 0.0 in
10:44 11.8 °F 8.3 °F 1018.8 in NW 8.2 mph 16.6 mph 79 % 0.0 in
10:49 12.1 °F 8.0 °F 1018.8 in WSW 6.6 mph 17.7 mph 76 % 0.0 in
10:54 12.3 °F 7.8 °F 1018.8 in WSW 5.8 mph 18.3 mph 74 % 0.0 in
10:59 12.3 °F 7.6 °F 1018.8 in WSW 8.2 mph 32.0 mph 73 % 0.0 in
11:04 12.4 °F 7.3 °F 1018.8 in WSW 8.5 mph 32.0 mph 71 % 0.0 in
11:09 12.5 °F 6.8 °F 1018.8 in West 9.7 mph 31.7 mph 68 % 0.0 in
11:14 12.4 °F 6.2 °F 1018.8 in West 14.0 mph 31.7 mph 66 % 0.0 in
11:19 12.5 °F 5.9 °F 1018.8 in WNW 12.7 mph 31.7 mph 64 % 0.0 in
11:24 12.5 °F 5.2 °F 1018.8 in WNW 10.0 mph 19.8 mph 61 % 0.0 in
11:29 12.6 °F 5.1 °F 1018.8 in WNW 10.1 mph 23.8 mph 60 % 0.0 in
11:34 12.6 °F 4.8 °F 1018.8 in West 8.8 mph 23.8 mph 59 % 0.0 in
11:39 12.6 °F 4.3 °F 1018.8 in West 8.8 mph 22.7 mph 57 % 0.0 in
11:44 12.6 °F 4.1 °F 1018.8 in West 10.9 mph 23.8 mph 56 % 0.0 in
11:49 12.6 °F 3.8 °F 1018.8 in WSW 10.3 mph 23.8 mph 55 % 0.0 in
11:54 12.7 °F 3.6 °F 1018.8 in West 10.1 mph 20.9 mph 54 % 0.0 in
11:59 12.6 °F 3.6 °F 1018.8 in West 9.8 mph 25.3 mph 54 % 0.0 in
12:04 12.7 °F 3.3 °F 1018.8 in WSW 9.8 mph 25.3 mph 53 % 0.0 in
12:09 12.8 °F 3.2 °F 1018.8 in West 10.9 mph 21.6 mph 52 % 0.0 in
12:14 12.8 °F 3.2 °F 1018.8 in West 9.8 mph 35.6 mph 52 % 0.0 in
12:19 12.7 °F 2.8 °F 1018.8 in West 10.5 mph 35.6 mph 51 % 0.0 in
12:24 12.8 °F 2.6 °F 1018.8 in West 11.1 mph 25.6 mph 50 % 0.0 in
12:29 12.9 °F 2.7 °F 1018.8 in SW 9.3 mph 19.5 mph 50 % 0.0 in
12:34 13.0 °F 2.8 °F 1018.8 in WSW 8.8 mph 24.8 mph 50 % 0.0 in
12:39 13.1 °F 2.6 °F 1018.8 in SW 10.8 mph 24.8 mph 49 % 0.0 in
12:44 13.0 °F 2.5 °F 1018.8 in SW 12.4 mph 23.8 mph 49 % 0.0 in
12:49 13.1 °F 2.6 °F 1018.8 in WSW 10.1 mph 21.2 mph 49 % 0.0 in
12:54 13.2 °F 2.4 °F 1018.8 in WSW 8.2 mph 23.8 mph 48 % 0.0 in
12:59 13.2 °F 2.4 °F 1018.8 in WSW 9.3 mph 24.8 mph 48 % 0.0 in
13:04 13.2 °F 2.4 °F 1018.8 in WSW 9.5 mph 24.8 mph 48 % 0.0 in
13:09 13.2 °F 2.1 °F 1018.8 in WSW 9.3 mph 24.8 mph 47 % 0.0 in
13:14 13.2 °F 2.1 °F 1018.2 in West 9.8 mph 23.8 mph 47 % 0.0 in
13:19 13.2 °F 2.1 °F 1018.2 in WSW 9.0 mph 23.8 mph 47 % 0.0 in
13:24 13.2 °F 2.1 °F 1018.2 in WSW 9.3 mph 16.6 mph 47 % 0.0 in
13:29 13.2 °F 1.8 °F 1018.8 in WSW 9.5 mph 16.6 mph 46 % 0.0 in
13:34 13.2 °F 1.8 °F 1018.8 in West 7.7 mph 19.1 mph 46 % 0.0 in
13:39 13.2 °F 1.8 °F 1018.8 in WSW 7.9 mph 19.1 mph 46 % 0.0 in
13:44 13.1 °F 1.7 °F 1018.8 in West 9.5 mph 19.5 mph 46 % 0.0 in
13:49 13.0 °F 1.6 °F 1018.8 in WSW 9.7 mph 19.5 mph 46 % 0.0 in
13:54 13.0 °F 1.6 °F 1018.8 in WSW 8.0 mph 15.4 mph 46 % 0.0 in
13:59 12.9 °F 1.6 °F 1018.8 in West 8.0 mph 23.0 mph 46 % 0.0 in
14:04 12.9 °F 1.6 °F 1018.8 in WSW 7.6 mph 23.0 mph 46 % 0.0 in
14:09 12.9 °F 1.6 °F 1018.8 in SW 6.4 mph 19.8 mph 46 % 0.0 in
14:14 12.8 °F 1.4 °F 1018.8 in SW 8.2 mph 19.8 mph 46 % 0.0 in
14:19 12.7 °F 1.4 °F 1018.8 in WSW 10.0 mph 27.7 mph 46 % 0.0 in
14:24 12.6 °F 1.3 °F 1018.8 in WSW 8.4 mph 27.7 mph 46 % 0.0 in
14:29 12.6 °F 1.3 °F 1018.8 in West 7.1 mph 17.2 mph 46 % 0.0 in
14:34 12.5 °F 1.2 °F 1018.8 in WSW 7.4 mph 20.6 mph 46 % 0.0 in
14:39 12.5 °F 1.2 °F 1018.8 in SW 8.4 mph 20.6 mph 46 % 0.0 in
14:44 12.4 °F 1.1 °F 1018.8 in WSW 8.5 mph 16.9 mph 46 % 0.0 in
14:49 12.4 °F 1.1 °F 1018.8 in WSW 7.4 mph 16.9 mph 46 % 0.0 in
14:54 12.3 °F 1.0 °F 1018.8 in WSW 5.1 mph 10.1 mph 46 % 0.0 in
14:59 12.2 °F 0.9 °F 1018.2 in SSW 5.1 mph 13.0 mph 46 % 0.0 in
15:04 12.2 °F 1.2 °F 1018.2 in SSW 7.7 mph 13.0 mph 47 % 0.0 in
15:09 12.1 °F 1.1 °F 1018.2 in SSW 7.9 mph 16.9 mph 47 % 0.0 in
15:14 12.1 °F 1.1 °F 1018.8 in WSW 7.4 mph 16.9 mph 47 % 0.0 in
15:19 12.1 °F 1.1 °F 1018.8 in West 7.6 mph 15.4 mph 47 % 0.0 in
15:24 12.1 °F 1.1 °F 1018.8 in WSW 6.3 mph 15.4 mph 47 % 0.0 in
15:29 12.0 °F 1.0 °F 1018.8 in SW 5.5 mph 13.0 mph 47 % 0.0 in
15:34 11.9 °F 1.2 °F 1018.8 in SSW 6.6 mph 13.0 mph 48 % 0.0 in
15:39 11.8 °F 1.1 °F 1018.8 in SW 6.1 mph 13.0 mph 48 % 0.0 in
15:44 11.7 °F 1.1 °F 1018.8 in West 4.8 mph 10.5 mph 48 % 0.0 in
15:49 11.6 °F 0.9 °F 1018.8 in SW 6.0 mph 13.0 mph 48 % 0.0 in
15:54 11.6 °F 0.9 °F 1018.8 in SW 6.6 mph 13.0 mph 48 % 0.0 in
15:59 11.5 °F 0.8 °F 1018.2 in SW 6.0 mph 11.9 mph 48 % 0.0 in
16:04 11.5 °F 0.8 °F 1018.2 in SSW 6.3 mph 12.2 mph 48 % 0.0 in
16:09 11.4 °F 0.8 °F 1018.2 in SW 6.1 mph 15.8 mph 48 % 0.0 in
16:14 11.3 °F 0.7 °F 1018.8 in SW 6.4 mph 16.3 mph 48 % 0.0 in
16:19 11.2 °F 0.6 °F 1018.8 in SSW 7.2 mph 16.3 mph 48 % 0.0 in
16:24 11.2 °F 0.6 °F 1018.8 in SW 7.4 mph 14.0 mph 48 % 0.0 in
16:29 11.1 °F 0.8 °F 1018.8 in SW 8.7 mph 23.0 mph 49 % 0.0 in
16:34 11.0 °F 0.7 °F 1018.8 in SW 8.2 mph 23.0 mph 49 % 0.0 in
16:39 11.0 °F 0.7 °F 1018.8 in SW 5.1 mph 14.0 mph 49 % 0.0 in
16:44 10.9 °F 0.6 °F 1018.8 in SW 3.1 mph 7.9 mph 49 % 0.0 in
16:49 10.8 °F 0.5 °F 1018.8 in SW 3.4 mph 7.9 mph 49 % 0.0 in
16:54 10.7 °F 0.4 °F 1018.8 in WSW 4.0 mph 6.9 mph 49 % 0.0 in
16:59 10.6 °F 0.6 °F 1018.8 in WSW 4.2 mph 8.7 mph 50 % 0.0 in
17:04 10.6 °F 0.6 °F 1018.8 in WSW 5.5 mph 12.2 mph 50 % 0.0 in
17:09 10.5 °F 0.5 °F 1018.8 in WSW 5.5 mph 12.2 mph 50 % 0.0 in
17:14 10.3 °F 0.3 °F 1018.8 in SW 3.7 mph 6.9 mph 50 % 0.0 in
17:19 10.1 °F 0.1 °F 1018.8 in SW 3.5 mph 7.9 mph 50 % 0.0 in
17:24 10.0 °F 0.1 °F 1018.8 in SW 4.0 mph 7.9 mph 50 % 0.0 in
17:29 9.8 °F 0.1 °F 1018.8 in SW 4.2 mph 6.4 mph 51 % 0.0 in
17:34 9.7 °F 0.1 °F 1018.8 in SW 4.3 mph 9.7 mph 51 % 0.0 in
17:39 9.6 °F 0.2 °F 1018.8 in SW 3.9 mph 9.7 mph 52 % 0.0 in
17:44 9.4 °F 0.0 °F 1019.9 in SW 3.9 mph 8.7 mph 52 % 0.0 in
17:49 9.4 °F 0.0 °F 1019.9 in SW 4.0 mph 8.7 mph 52 % 0.0 in
17:54 9.4 °F 0.3 °F 1019.9 in SW 4.0 mph 7.6 mph 53 % 0.0 in
17:59 9.3 °F 0.2 °F 1019.9 in WSW 4.5 mph 9.0 mph 53 % 0.0 in
18:04 9.1 °F 0.0 °F 1019.9 in WSW 2.9 mph 9.0 mph 53 % 0.0 in
18:09 8.6 °F -0.2 °F 1019.9 in WSW 1.6 mph 4.0 mph 54 % 0.0 in
18:14 8.3 °F -0.5 °F 1019.9 in WNW 1.0 mph 4.0 mph 54 % 0.0 in
18:19 8.0 °F -0.8 °F 1019.9 in NW 0.2 mph 2.1 mph 54 % 0.0 in
18:24 7.7 °F -0.8 °F 1019.9 in NW 0.8 mph 3.5 mph 55 % 0.0 in
18:29 7.3 °F -0.9 °F 1019.9 in WNW 0.8 mph 3.5 mph 56 % 0.0 in
18:34 6.9 °F -1.1 °F 1019.9 in West 0.2 mph 2.1 mph 57 % 0.0 in
18:39 6.6 °F -1.3 °F 1019.9 in Calm     57 % 0.0 in
18:44 6.3 °F -1.4 °F 1019.9 in NW 0.8 mph 6.1 mph 58 % 0.0 in
18:49 6.1 °F -1.6 °F 1019.9 in NW 1.4 mph 6.1 mph 58 % 0.0 in
18:54 5.7 °F -1.7 °F 1019.9 in NW 0.8 mph 4.7 mph 59 % 0.0 in
18:59 5.5 °F -1.7 °F 1019.9 in NW 0.2 mph 3.5 mph 60 % 0.0 in
19:04 5.3 °F -1.8 °F 1019.9 in NW 0.2 mph 4.0 mph 60 % 0.0 in
19:09 5.0 °F -1.9 °F 1019.9 in WNW 0.3 mph 4.0 mph 61 % 0.0 in
19:14 4.9 °F -1.8 °F 1020.9 in Calm   4.0 mph 62 % 0.0 in
19:19 4.7 °F -1.8 °F 1020.9 in WNW 0.2 mph 4.0 mph 63 % 0.0 in
19:24 4.5 °F -1.7 °F 1020.9 in Calm     64 % 0.0 in
19:29 4.3 °F -1.9 °F 1020.9 in WNW 0.2 mph 1.8 mph 64 % 0.0 in
19:34 4.1 °F -1.9 °F 1020.9 in WNW 0.2 mph 1.8 mph 65 % 0.0 in
19:39 4.0 °F -2.0 °F 1020.9 in NW 0.6 mph 5.0 mph 65 % 0.0 in
19:44 4.0 °F -1.8 °F 1020.9 in NW 1.0 mph 5.0 mph 66 % 0.0 in
19:49 3.8 °F -1.8 °F 1020.9 in North 0.3 mph   67 % 0.0 in
19:54 3.7 °F -1.9 °F 1020.9 in Calm     67 % 0.0 in
19:59 3.6 °F -1.8 °F 1020.9 in Calm   2.6 mph 68 % 0.0 in
20:04 3.5 °F -1.8 °F 1020.9 in WNW 0.2 mph 2.6 mph 68 % 0.0 in
20:09 3.4 °F -1.8 °F 1020.9 in WNW 0.5 mph 2.6 mph 69 % 0.0 in
20:14 3.4 °F -1.8 °F 1020.9 in WNW 0.2 mph 2.6 mph 69 % 0.0 in
20:19 3.4 °F -1.6 °F 1020.9 in Calm     70 % 0.0 in
20:24 3.3 °F -1.7 °F 1020.9 in Calm     70 % 0.0 in
20:29 3.3 °F -1.4 °F 1020.9 in Calm     71 % 0.0 in
20:34 3.2 °F -1.6 °F 1020.9 in West 0.3 mph 5.5 mph 71 % 0.0 in
20:39 3.1 °F -1.4 °F 1020.9 in West 0.6 mph 5.5 mph 72 % 0.0 in
20:44 3.0 °F -1.6 °F 1020.9 in NW 1.6 mph 4.7 mph 72 % 0.0 in
20:49 3.0 °F -1.6 °F 1020.9 in NW 1.6 mph 4.7 mph 72 % 0.0 in
20:54 2.9 °F -1.4 °F 1020.9 in WNW 0.3 mph 4.0 mph 73 % 0.0 in
20:59 2.8 °F -1.6 °F 1019.9 in Calm     73 % 0.0 in
21:04 2.7 °F -1.5 °F 1019.9 in Calm     74 % 0.0 in
21:09 2.6 °F -1.6 °F 1019.9 in Calm     74 % 0.0 in
21:14 2.5 °F -1.7 °F 1019.9 in Calm     74 % 0.0 in
21:19 2.5 °F -1.5 °F 1019.9 in Calm     75 % 0.0 in
21:24 2.4 °F -1.6 °F 1019.9 in WNW 0.3 mph 4.3 mph 75 % 0.0 in
21:29 2.3 °F -1.7 °F 1019.9 in WNW 0.3 mph 4.3 mph 75 % 0.0 in
21:34 2.2 °F -1.8 °F 1019.9 in Calm     75 % 0.0 in
21:39 2.1 °F -1.7 °F 1019.9 in WSW 0.5 mph 4.7 mph 76 % 0.0 in
21:44 2.0 °F -1.8 °F 1020.9 in WNW 1.9 mph 4.7 mph 76 % 0.0 in
21:49 2.0 °F -1.8 °F 1020.9 in NW 3.2 mph 5.5 mph 76 % 0.0 in
21:54 2.1 °F -1.7 °F 1020.9 in NW 2.1 mph 5.5 mph 76 % 0.0 in
21:59 2.0 °F -1.6 °F 1020.9 in NW 0.8 mph 4.3 mph 77 % 0.0 in
22:05 2.0 °F -1.6 °F 1020.9 in NW 0.3 mph 2.6 mph 77 % 0.0 in
22:10 1.9 °F -1.7 °F 1020.9 in NW 0.3 mph 3.2 mph 77 % 0.0 in
22:15 1.9 °F -1.6 °F 1020.9 in NW 0.6 mph 3.2 mph 78 % 0.0 in
22:20 1.9 °F -1.6 °F 1020.9 in NW 0.3 mph 2.1 mph 78 % 0.0 in
22:25 1.7 °F -1.7 °F 1020.9 in Calm     78 % 0.0 in
22:30 1.7 °F -1.7 °F 1020.9 in Calm     78 % 0.0 in
22:35 1.7 °F -1.7 °F 1020.9 in NW 0.6 mph 4.3 mph 78 % 0.0 in
22:40 1.7 °F -1.6 °F 1020.9 in NW 1.0 mph 4.3 mph 79 % 0.0 in
22:45 1.6 °F -1.7 °F 1020.9 in NNW 0.6 mph 4.3 mph 79 % 0.0 in
22:50 1.6 °F -1.7 °F 1020.9 in NW 1.8 mph 5.8 mph 79 % 0.0 in
22:55 1.6 °F -1.7 °F 1020.9 in NW 1.8 mph 5.8 mph 79 % 0.0 in
23:00 1.6 °F -1.7 °F 1021.9 in NE 0.5 mph 2.6 mph 79 % 0.0 in
23:05 1.6 °F -1.5 °F 1021.9 in Calm     80 % 0.0 in
23:10 1.6 °F -1.5 °F 1021.9 in WNW 0.2 mph 4.0 mph 80 % 0.0 in
23:15 1.5 °F -1.6 °F 1021.9 in WNW 0.2 mph 4.0 mph 80 % 0.0 in
23:20 1.4 °F -1.7 °F 1021.9 in NW 0.2 mph 4.0 mph 80 % 0.0 in
23:25 1.4 °F -1.5 °F 1021.9 in NNW 0.5 mph 4.0 mph 81 % 0.0 in
23:30 1.4 °F -1.5 °F 1021.9 in NW 0.8 mph 4.3 mph 81 % 0.0 in
23:35 1.4 °F -1.5 °F 1021.9 in NW 1.0 mph 4.3 mph 81 % 0.0 in
23:40 1.4 °F -1.5 °F 1021.9 in NW 0.5 mph 2.1 mph 81 % 0.0 in
23:45 1.3 °F -1.4 °F 1021.9 in Calm     82 % 0.0 in
23:50 1.3 °F -1.4 °F 1021.9 in WNW 0.3 mph 5.5 mph 82 % 0.0 in
23:55 1.3 °F -1.4 °F 1021.9 in NW 0.8 mph 5.5 mph 82 % 0.0 in
Vremenska postaja Senovo
Podatki zbrani iz Weather Underground - 3 mb

Script developed by  Jim McMurry - jmcmurry@mwt.net Adapted for the template by  Wim van der Kuil - Leuven-Template.eu

Vremenski podatki so objavljeni na:

European Weather Network

WeatherCloud

Weather Underground

AWEKAS

HAMweather, WeatherForYou, PWS Weather

MapView

Geostik

Slovenia weather network

Oprema, ki se uporablja:

Vremenski program
Cumulus

Vremenski server
Asus

Cumulus

Asus